createdAt,value
2018-11-05T00:01:07.276Z,221.90
2018-11-05T00:03:34.790Z,202.60
2018-11-05T00:06:02.296Z,186.57
2018-11-05T00:08:29.803Z,193.83
2018-11-05T00:10:57.307Z,173.40
2018-11-05T00:13:24.827Z,164.13
2018-11-05T00:15:52.326Z,159.90
2018-11-05T00:18:19.863Z,174.30
2018-11-05T00:20:47.377Z,168.07
2018-11-05T00:23:14.896Z,413.67
2018-11-05T00:25:42.411Z,575.90
2018-11-05T00:28:09.915Z,806.33
2018-11-05T00:30:37.409Z,293.43
2018-11-05T00:33:04.936Z,160.23
2018-11-05T00:35:32.454Z,154.20
2018-11-05T00:37:59.971Z,156.33
2018-11-05T00:40:27.470Z,137.07
2018-11-05T00:42:54.988Z,141.63
2018-11-05T00:45:22.489Z,135.03
2018-11-05T00:47:50.216Z,135.23
2018-11-05T00:50:17.782Z,168.10
2018-11-05T00:52:45.294Z,169.70
2018-11-05T00:55:13.152Z,152.53
2018-11-05T00:57:40.667Z,132.73
2018-11-05T01:00:14.411Z,141.37
2018-11-05T01:02:42.205Z,164.40
2018-11-05T01:05:11.167Z,248.70
2018-11-05T01:07:38.968Z,243.07
2018-11-05T01:10:07.721Z,173.63
2018-11-05T01:12:35.605Z,230.47
2018-11-05T01:15:03.139Z,234.13
2018-11-05T01:17:30.651Z,194.03
2018-11-05T01:19:58.153Z,176.60
2018-11-05T01:22:25.643Z,241.33
2018-11-05T01:24:53.148Z,220.37
2018-11-05T01:27:20.648Z,288.30
2018-11-05T01:29:48.152Z,331.97
2018-11-05T01:32:15.642Z,426.63
2018-11-05T01:34:43.139Z,382.00
2018-11-05T01:37:10.701Z,294.30
2018-11-05T01:39:38.156Z,434.80
2018-11-05T01:42:05.668Z,307.50
2018-11-05T01:44:33.188Z,214.77
2018-11-05T01:47:00.699Z,236.03
2018-11-05T01:49:28.204Z,150.33
2018-11-05T01:51:55.717Z,132.77
2018-11-05T01:54:23.241Z,106.33
2018-11-05T01:56:50.756Z,138.10
2018-11-05T01:59:19.532Z,167.17
2018-11-05T02:01:47.047Z,214.47
2018-11-05T02:04:14.557Z,206.03
2018-11-05T02:06:42.069Z,291.80
